createdAt,value
2017-08-18T00:01:13.996Z,1.70
2017-08-18T00:03:43.253Z,1.70
2017-08-18T00:06:12.550Z,2.23
2017-08-18T00:08:41.782Z,2.37
2017-08-18T00:11:11.031Z,2.67
2017-08-18T00:13:40.301Z,2.10
2017-08-18T00:16:09.667Z,1.97
2017-08-18T00:18:38.968Z,2.03
2017-08-18T00:21:08.223Z,1.90
2017-08-18T00:23:37.507Z,2.20
2017-08-18T00:26:06.755Z,1.63
2017-08-18T00:28:36.044Z,2.30
2017-08-18T00:31:05.312Z,2.00
2017-08-18T00:33:35.373Z,2.03
2017-08-18T00:36:04.642Z,2.03
2017-08-18T00:38:33.914Z,1.60
2017-08-18T00:41:03.312Z,2.47
2017-08-18T00:43:32.570Z,1.93
2017-08-18T00:46:01.963Z,2.20
2017-08-18T00:48:31.221Z,2.10
2017-08-18T00:51:00.516Z,2.57
2017-08-18T00:53:29.927Z,2.10
2017-08-18T00:55:59.185Z,2.23
2017-08-18T00:58:28.439Z,2.40
2017-08-18T01:00:58.479Z,1.93
2017-08-18T01:03:27.898Z,2.10
2017-08-18T01:05:57.150Z,2.03
2017-08-18T01:08:26.464Z,2.00
2017-08-18T01:10:56.592Z,2.47
2017-08-18T01:13:26.687Z,2.60
2017-08-18T01:15:55.973Z,2.40
2017-08-18T01:18:25.218Z,1.70
2017-08-18T01:20:54.493Z,2.50
2017-08-18T01:23:23.750Z,2.00
2017-08-18T01:25:53.090Z,2.10
2017-08-18T01:28:22.350Z,2.50
2017-08-18T01:30:51.621Z,1.73
2017-08-18T01:33:21.642Z,2.90
2017-08-18T01:35:50.907Z,1.63
2017-08-18T01:38:20.152Z,2.00
2017-08-18T01:40:49.402Z,2.07
2017-08-18T01:43:18.910Z,2.47
2017-08-18T01:45:48.173Z,2.70
2017-08-18T01:48:17.474Z,2.17
2017-08-18T01:50:46.742Z,2.30
2017-08-18T01:53:15.985Z,2.97
2017-08-18T01:55:45.260Z,1.90
2017-08-18T01:58:14.522Z,2.80
2017-08-18T02:00:43.789Z,2.10
2017-08-18T02:03:13.042Z,2.40
2017-08-18T02:05:42.298Z,1.80
2017-08-18T02:08:11.546Z,2.40
2017-08-18T02:10:40.994Z,2.53
2017-08-18T02:13:10.254Z,2.20
2017-08-18T02:15:39.507Z,2.20
2017-08-18T02:18:08.980Z,1.77
2017-08-18T02:20:38.246Z,3.23
2017-08-18T02:23:07.517Z,1.87
2017-08-18T02:25:36.801Z,2.67
2017-08-18T02:28:06.090Z,2.53
2017-08-18T02:30:35.376Z,2.23
2017-08-18T02:33:04.983Z,2.37
2017-08-18T02:35:35.031Z,1.87
2017-08-18T02:38:04.258Z,2.47
2017-08-18T02:40:33.522Z,2.43
2017-08-18T02:43:02.841Z,2.47
2017-08-18T02:45:32.106Z,2.40
2017-08-18T02:48:01.513Z,2.33
2017-08-18T02:50:30.761Z,2.60
2017-08-18T02:53:00.098Z,2.00
2017-08-18T02:55:29.349Z,2.30
2017-08-18T02:57:58.597Z,1.80
2017-08-18T03:00:27.883Z,2.77
2017-08-18T03:02:57.123Z,2.37
2017-08-18T03:05:26.399Z,2.07
2017-08-18T03:07:55.694Z,2.53
2017-08-18T03:10:24.963Z,2.40
2017-08-18T03:12:54.197Z,2.50
2017-08-18T03:15:23.474Z,1.80
2017-08-18T03:17:52.824Z,2.67
2017-08-18T03:20:22.073Z,2.23
2017-08-18T03:22:51.340Z,3.10
2017-08-18T03:25:20.594Z,2.73
2017-08-18T03:27:49.858Z,2.30
2017-08-18T03:30:19.141Z,2.63
2017-08-18T03:32:48.399Z,2.20
2017-08-18T03:35:17.757Z,3.17
2017-08-18T03:37:47.045Z,2.60
2017-08-18T03:40:17.058Z,2.00
2017-08-18T03:42:46.525Z,2.30
2017-08-18T03:45:15.851Z,2.33
2017-08-18T03:47:45.131Z,2.60
2017-08-18T03:50:14.390Z,2.40
2017-08-18T03:52:43.662Z,3.73
2017-08-18T03:55:13.044Z,2.37
2017-08-18T03:57:42.301Z,4.03
2017-08-18T04:00:11.718Z,2.30
2017-08-18T04:02:40.970Z,2.43
2017-08-18T04:05:10.233Z,2.80
2017-08-18T04:07:39.470Z,2.53
2017-08-18T04:10:08.742Z,2.57
2017-08-18T04:12:38.002Z,3.00
2017-08-18T04:15:07.242Z,2.40
2017-08-18T04:17:37.043Z,2.70
2017-08-18T04:20:06.289Z,3.57
2017-08-18T04:22:35.833Z,2.30
2017-08-18T04:25:05.118Z,2.57
2017-08-18T04:27:34.370Z,2.37
2017-08-18T04:30:03.812Z,2.57
2017-08-18T04:32:33.083Z,2.03
2017-08-18T04:35:02.347Z,2.87
2017-08-18T04:37:31.621Z,2.83
2017-08-18T04:40:00.889Z,2.20
2017-08-18T04:42:30.153Z,1.93
2017-08-18T04:44:59.422Z,2.10
2017-08-18T04:47:28.670Z,1.83
2017-08-18T04:49:58.114Z,2.67
2017-08-18T04:52:27.409Z,2.50
2017-08-18T04:54:56.666Z,4.43
2017-08-18T04:57:25.950Z,2.37
2017-08-18T04:59:55.232Z,3.00
2017-08-18T05:02:24.558Z,3.17
2017-08-18T05:04:53.815Z,3.67
2017-08-18T05:07:24.116Z,2.93
2017-08-18T05:09:53.367Z,2.77
2017-08-18T05:12:22.634Z,2.53
2017-08-18T05:14:51.901Z,2.60
2017-08-18T05:17:21.152Z,3.53
2017-08-18T05:19:51.181Z,2.80
2017-08-18T05:22:20.463Z,2.50
2017-08-18T05:24:49.732Z,2.43
2017-08-18T05:27:18.979Z,2.10
2017-08-18T05:29:48.231Z,2.50
2017-08-18T05:32:17.654Z,2.33
2017-08-18T05:34:46.908Z,3.10
2017-08-18T05:37:16.376Z,2.10
2017-08-18T05:39:46.407Z,2.17
2017-08-18T05:42:15.654Z,2.87
2017-08-18T05:44:44.909Z,2.37
2017-08-18T05:47:14.175Z,1.77
2017-08-18T05:49:43.685Z,2.20
2017-08-18T05:52:12.942Z,2.30
2017-08-18T05:54:42.214Z,2.00
2017-08-18T05:57:11.462Z,1.80
2017-08-18T05:59:40.953Z,2.20
2017-08-18T06:02:10.210Z,1.97
2017-08-18T06:04:40.246Z,2.20
2017-08-18T06:07:09.512Z,2.70
2017-08-18T06:09:38.800Z,1.70
2017-08-18T06:12:08.069Z,2.17
2017-08-18T06:14:37.317Z,2.07
2017-08-18T06:17:06.637Z,2.03
2017-08-18T06:19:36.682Z,1.73
2017-08-18T06:22:06.750Z,2.60
2017-08-18T06:24:36.053Z,2.00
2017-08-18T06:27:05.362Z,1.80
2017-08-18T06:29:34.704Z,2.07
2017-08-18T06:32:03.998Z,2.00
2017-08-18T06:34:33.246Z,2.50
2017-08-18T06:37:02.491Z,1.83
2017-08-18T06:39:31.784Z,1.73
2017-08-18T06:42:01.798Z,2.00
2017-08-18T06:44:31.073Z,2.40
2017-08-18T06:47:00.322Z,2.70
2017-08-18T06:49:29.641Z,2.23
2017-08-18T06:51:58.909Z,2.83
2017-08-18T06:54:28.918Z,2.60
2017-08-18T06:56:58.190Z,2.37
2017-08-18T06:59:27.425Z,2.30
2017-08-18T07:01:57.468Z,1.93
2017-08-18T07:04:26.745Z,2.37
2017-08-18T07:06:56.056Z,2.50
2017-08-18T07:09:25.353Z,2.43
2017-08-18T07:11:54.791Z,1.87
2017-08-18T07:14:25.133Z,1.97
2017-08-18T07:16:54.383Z,1.90
2017-08-18T07:19:23.662Z,2.30
2017-08-18T07:21:52.917Z,1.80
2017-08-18T07:24:22.421Z,1.90
2017-08-18T07:26:51.892Z,2.00
2017-08-18T07:29:21.918Z,2.47
2017-08-18T07:31:51.184Z,2.10
2017-08-18T07:34:20.442Z,2.23
2017-08-18T07:36:49.710Z,2.00
2017-08-18T07:39:19.725Z,1.80
2017-08-18T07:41:48.981Z,2.83
2017-08-18T07:44:18.251Z,4.63
2017-08-18T07:46:47.507Z,2.63
2017-08-18T07:49:16.794Z,2.20
2017-08-18T07:51:46.141Z,2.20
2017-08-18T07:54:16.183Z,2.10
2017-08-18T07:56:45.437Z,2.30
2017-08-18T07:59:14.706Z,1.83
2017-08-18T08:01:43.953Z,2.37
2017-08-18T08:04:14.105Z,2.10
2017-08-18T08:06:43.391Z,2.47
2017-08-18T08:09:12.706Z,2.10
2017-08-18T08:11:41.975Z,2.77
2017-08-18T08:14:11.222Z,2.13
2017-08-18T08:16:40.774Z,2.00
2017-08-18T08:19:10.298Z,1.90
2017-08-18T08:21:40.333Z,2.10
2017-08-18T08:24:09.605Z,2.47
2017-08-18T08:26:38.864Z,1.93
2017-08-18T08:29:08.125Z,1.90
2017-08-18T08:31:37.420Z,3.20
2017-08-18T08:34:07.510Z,1.90
2017-08-18T08:36:36.777Z,2.70
2017-08-18T08:39:06.017Z,2.30
2017-08-18T08:41:35.263Z,1.70
2017-08-18T08:44:04.625Z,2.00
2017-08-18T08:46:33.871Z,1.97
2017-08-18T08:49:03.153Z,2.10
2017-08-18T08:51:33.259Z,2.40
2017-08-18T08:54:03.398Z,2.23
2017-08-18T08:56:32.661Z,2.13
2017-08-18T08:59:01.905Z,2.27
2017-08-18T09:01:31.170Z,1.73
2017-08-18T09:04:00.416Z,2.30
2017-08-18T09:06:29.678Z,2.53
2017-08-18T09:08:59.727Z,2.30
2017-08-18T09:11:29.030Z,2.27
2017-08-18T09:13:58.318Z,2.57
2017-08-18T09:16:27.576Z,2.73
2017-08-18T09:18:57.773Z,2.20
2017-08-18T09:21:27.018Z,2.33
2017-08-18T09:23:56.385Z,2.57
2017-08-18T09:26:25.665Z,2.33
2017-08-18T09:28:54.911Z,2.07
2017-08-18T09:31:24.346Z,2.13
2017-08-18T09:33:54.363Z,2.30
2017-08-18T09:36:23.634Z,3.00
2017-08-18T09:38:52.907Z,2.10
2017-08-18T09:41:22.165Z,2.23
2017-08-18T09:43:52.234Z,2.50
2017-08-18T09:46:21.466Z,3.00
2017-08-18T09:49:08.289Z,2.40
2017-08-18T09:55:14.070Z,2.40
2017-08-18T09:58:01.868Z,2.50
2017-08-18T10:00:46.213Z,2.93
2017-08-18T10:03:15.157Z,2.60
2017-08-18T10:05:44.148Z,2.37
2017-08-18T10:08:13.109Z,1.93
2017-08-18T10:10:42.067Z,2.50
2017-08-18T10:13:10.985Z,2.47
2017-08-18T10:15:40.022Z,2.67
2017-08-18T10:18:09.005Z,1.90
2017-08-18T10:20:37.953Z,2.10
2017-08-18T10:23:06.915Z,2.20
2017-08-18T10:25:35.850Z,1.90
2017-08-18T10:28:04.855Z,1.83
2017-08-18T10:30:33.814Z,2.00
2017-08-18T10:33:02.770Z,1.77
2017-08-18T10:35:31.764Z,1.83
2017-08-18T10:38:00.719Z,2.20
2017-08-18T10:40:29.650Z,1.70
2017-08-18T10:42:58.712Z,2.20
2017-08-18T10:45:27.637Z,1.80
2017-08-18T10:47:56.587Z,2.27
2017-08-18T10:50:25.536Z,2.00
2017-08-18T10:52:54.479Z,1.73
2017-08-18T10:55:23.430Z,2.23
2017-08-18T10:57:53.152Z,2.00
2017-08-18T11:00:22.889Z,2.70
2017-08-18T11:02:51.839Z,3.30
2017-08-18T11:05:20.966Z,2.00
2017-08-18T11:07:49.913Z,2.20
2017-08-18T11:10:18.883Z,2.27
2017-08-18T11:12:47.827Z,1.77
2017-08-18T11:15:16.788Z,1.93
2017-08-18T11:17:45.741Z,2.20
2017-08-18T11:20:14.748Z,2.00
2017-08-18T11:22:43.974Z,1.70
2017-08-18T11:25:12.941Z,1.73
2017-08-18T11:27:41.897Z,2.03
2017-08-18T11:30:10.849Z,1.93
2017-08-18T11:32:39.806Z,1.47
2017-08-18T11:35:08.775Z,1.30
2017-08-18T11:37:38.530Z,1.50
2017-08-18T11:40:07.466Z,1.73
2017-08-18T11:42:37.327Z,1.17
2017-08-18T11:45:06.469Z,1.30
2017-08-18T11:47:35.435Z,1.37
2017-08-18T11:50:04.457Z,1.10
2017-08-18T11:52:33.393Z,1.23
2017-08-18T11:55:02.370Z,1.23
2017-08-18T11:57:32.081Z,1.30
2017-08-18T12:00:01.771Z,1.10
2017-08-18T12:02:30.758Z,1.10
2017-08-18T12:04:59.854Z,1.10
2017-08-18T12:07:28.822Z,1.10
2017-08-18T12:09:57.762Z,1.53
2017-08-18T12:12:27.481Z,1.03
2017-08-18T12:14:57.198Z,1.30
2017-08-18T12:17:26.920Z,1.33
2017-08-18T12:19:55.861Z,1.40
2017-08-18T12:22:24.815Z,1.40
2017-08-18T12:24:53.790Z,1.60
2017-08-18T12:27:22.929Z,1.57
2017-08-18T12:29:51.893Z,1.13
2017-08-18T12:32:20.899Z,0.90
2017-08-18T12:34:49.942Z,1.30
2017-08-18T12:37:19.496Z,1.50
2017-08-18T12:39:49.184Z,1.20
2017-08-18T12:42:18.894Z,1.10
2017-08-18T12:44:47.885Z,1.13
2017-08-18T12:47:16.869Z,2.17
2017-08-18T12:49:45.829Z,1.10
2017-08-18T12:52:14.890Z,1.13
2017-08-18T12:54:43.854Z,1.30
2017-08-18T12:57:13.056Z,1.47
2017-08-18T12:59:42.021Z,1.73
2017-08-18T13:02:11.167Z,1.23
2017-08-18T13:04:40.147Z,1.40
2017-08-18T13:07:09.102Z,1.27
2017-08-18T13:09:38.032Z,1.10
2017-08-18T13:12:07.161Z,1.30
2017-08-18T13:14:36.093Z,1.50
2017-08-18T13:17:05.014Z,0.97
2017-08-18T13:19:35.018Z,1.60
2017-08-18T13:22:03.969Z,1.60
2017-08-18T13:24:32.928Z,1.40
2017-08-18T13:27:01.894Z,1.50
2017-08-18T13:29:30.830Z,1.47
2017-08-18T13:31:59.894Z,1.50
2017-08-18T13:34:28.816Z,1.10
2017-08-18T13:36:57.754Z,1.10
2017-08-18T13:39:26.698Z,1.40
2017-08-18T13:41:56.456Z,1.40
2017-08-18T13:44:25.514Z,1.20
2017-08-18T13:46:55.211Z,1.30
2017-08-18T13:49:24.960Z,1.90
2017-08-18T13:51:53.901Z,2.10
2017-08-18T13:54:22.858Z,1.87
2017-08-18T13:56:51.801Z,1.63
2017-08-18T13:59:21.531Z,1.53
2017-08-18T14:01:50.471Z,1.53
2017-08-18T14:04:19.430Z,2.60
2017-08-18T14:06:48.396Z,2.60
2017-08-18T14:09:18.122Z,2.20
2017-08-18T14:11:47.093Z,1.80
2017-08-18T14:14:16.031Z,2.70
2017-08-18T14:16:44.980Z,1.40
2017-08-18T14:19:14.716Z,1.20
2017-08-18T14:21:43.699Z,0.93
2017-08-18T14:24:12.643Z,0.80
2017-08-18T14:26:47.533Z,0.70
2017-08-18T19:24:20.211Z,1.10
2017-08-18T19:29:53.200Z,1.40
2017-08-18T19:32:22.480Z,1.10
2017-08-18T19:34:51.789Z,1.17
2017-08-18T19:37:21.349Z,1.33
2017-08-18T19:52:09.815Z,1.20
2017-08-18T19:54:39.116Z,1.40
2017-08-18T19:57:08.687Z,1.60
2017-08-18T19:59:38.149Z,1.30
2017-08-18T20:02:07.712Z,1.20
2017-08-18T20:04:36.978Z,1.60
2017-08-18T20:07:06.302Z,1.63
2017-08-18T20:09:35.607Z,1.67
2017-08-18T20:12:04.946Z,1.57
2017-08-18T20:14:34.217Z,2.17
2017-08-18T20:17:03.528Z,1.77
2017-08-18T20:19:32.944Z,2.00
2017-08-18T20:22:02.194Z,2.03
2017-08-18T20:24:31.496Z,1.63
2017-08-18T20:27:00.749Z,2.20
2017-08-18T20:29:30.033Z,2.73
2017-08-18T20:31:59.308Z,1.97
2017-08-18T20:34:29.351Z,2.27
2017-08-18T20:36:58.638Z,2.37
2017-08-18T20:39:27.925Z,2.87
2017-08-18T20:41:57.998Z,1.93
2017-08-18T20:44:27.261Z,2.10
2017-08-18T20:46:56.672Z,2.40
2017-08-18T20:49:26.719Z,1.80
2017-08-18T20:51:55.991Z,1.80
2017-08-18T20:54:25.468Z,2.30
2017-08-18T20:56:54.762Z,2.10
2017-08-18T20:59:24.323Z,1.80
2017-08-18T21:01:53.744Z,1.70
2017-08-18T21:04:23.028Z,1.60
2017-08-18T21:06:52.288Z,1.83
2017-08-18T21:09:22.458Z,2.10
2017-08-18T21:11:51.961Z,1.73
2017-08-18T21:14:21.295Z,2.03
2017-08-18T21:16:50.592Z,1.73
2017-08-18T21:19:19.848Z,2.00
2017-08-18T21:21:49.160Z,1.73
2017-08-18T21:24:18.810Z,2.03
2017-08-18T21:26:48.138Z,2.60
2017-08-18T21:29:17.458Z,2.47
2017-08-18T21:31:46.710Z,1.93
2017-08-18T21:34:15.998Z,2.47
2017-08-18T21:36:45.306Z,2.73
2017-08-18T21:39:14.651Z,3.00
2017-08-18T21:41:43.932Z,3.80
2017-08-18T21:44:13.183Z,3.00
2017-08-18T21:46:42.464Z,3.60
2017-08-18T21:49:11.772Z,4.20
2017-08-18T21:51:41.042Z,3.77
2017-08-18T21:54:10.472Z,3.27
2017-08-18T21:56:40.509Z,3.63
2017-08-18T21:59:09.884Z,3.90
2017-08-18T22:01:39.930Z,3.83
2017-08-18T22:04:09.235Z,4.03
2017-08-18T22:06:38.564Z,3.50
2017-08-18T22:09:07.830Z,3.30
2017-08-18T22:11:37.116Z,3.53
2017-08-18T22:14:06.458Z,3.57
2017-08-18T22:16:35.832Z,3.87
2017-08-18T22:19:05.112Z,4.13
2017-08-18T22:21:34.832Z,4.17
2017-08-18T22:24:04.116Z,3.63
2017-08-18T22:26:34.255Z,3.10
2017-08-18T22:29:03.561Z,3.50
2017-08-18T22:31:32.826Z,3.70
2017-08-18T22:34:02.148Z,3.83
2017-08-18T22:36:32.195Z,3.80
2017-08-18T22:39:01.512Z,3.60
2017-08-18T22:41:30.864Z,4.37
2017-08-18T22:44:00.907Z,3.90
2017-08-18T22:46:30.208Z,3.80
2017-08-18T22:48:59.589Z,3.93
2017-08-18T22:51:29.637Z,3.60
2017-08-18T22:53:58.960Z,3.87
2017-08-18T22:56:28.262Z,4.50
2017-08-18T22:58:57.555Z,3.30
2017-08-18T23:01:26.823Z,3.27
2017-08-18T23:03:56.147Z,3.93
2017-08-18T23:06:25.408Z,2.93
2017-08-18T23:08:55.026Z,3.00
2017-08-18T23:11:24.316Z,3.60
2017-08-18T23:13:53.593Z,3.30
2017-08-18T23:16:22.883Z,3.00
2017-08-18T23:18:52.171Z,3.20
2017-08-18T23:21:21.487Z,2.60
2017-08-18T23:23:50.752Z,3.00
2017-08-18T23:26:20.037Z,2.90
2017-08-18T23:28:49.316Z,2.03
2017-08-18T23:31:18.636Z,2.20
2017-08-18T23:33:47.908Z,3.40
2017-08-18T23:36:17.168Z,3.10
2017-08-18T23:38:46.547Z,2.90
2017-08-18T23:41:15.927Z,2.30
2017-08-18T23:43:45.651Z,4.20
2017-08-18T23:46:14.913Z,3.07
2017-08-18T23:48:44.443Z,3.90
2017-08-18T23:51:13.762Z,2.90
2017-08-18T23:53:43.790Z,4.50
2017-08-18T23:56:13.067Z,2.90
2017-08-18T23:58:42.344Z,2.50
